createdAt,value
2019-03-18T00:01:42.669Z,0.70
2019-03-18T00:04:30.463Z,0.77
2019-03-18T00:07:18.247Z,0.80
2019-03-18T00:10:07.207Z,0.77
2019-03-18T00:12:55.034Z,0.90
2019-03-18T00:15:23.488Z,0.80
2019-03-18T00:18:11.322Z,0.90
2019-03-18T00:20:39.753Z,1.00
2019-03-18T00:23:08.197Z,0.80
2019-03-18T00:25:36.629Z,0.90
2019-03-18T00:28:24.402Z,1.10
2019-03-18T00:31:12.163Z,0.90
2019-03-18T00:33:40.604Z,0.93
2019-03-18T00:36:09.032Z,1.10
2019-03-18T00:38:56.816Z,1.00
2019-03-18T00:41:44.583Z,1.20
2019-03-18T00:44:32.365Z,1.10
2019-03-18T00:47:20.156Z,1.70
2019-03-18T00:50:28.680Z,1.80
2019-03-18T00:53:16.481Z,1.30
2019-03-18T00:56:04.247Z,1.70
2019-03-18T00:58:52.041Z,1.87
2019-03-18T01:01:39.841Z,1.70
2019-03-18T01:04:20.400Z,2.43
2019-03-18T01:07:01.488Z,1.77
2019-03-18T01:09:42.358Z,1.77
2019-03-18T01:12:23.017Z,2.30
2019-03-18T01:14:51.456Z,2.50
2019-03-18T01:17:39.255Z,2.10
2019-03-18T01:20:28.545Z,2.20
2019-03-18T01:23:16.330Z,2.50
2019-03-18T01:26:04.108Z,2.20
2019-03-18T01:28:51.894Z,2.23
2019-03-18T01:31:20.323Z,2.97
2019-03-18T01:34:08.114Z,3.13
2019-03-18T01:36:55.877Z,3.03
2019-03-18T01:39:43.668Z,2.73
2019-03-18T01:42:12.107Z,2.73
2019-03-18T01:44:59.971Z,3.07
2019-03-18T01:47:28.395Z,2.80
2019-03-18T01:50:16.187Z,2.53
2019-03-18T01:52:44.722Z,2.83
2019-03-18T01:55:32.571Z,3.77
2019-03-18T01:58:20.344Z,3.47
2019-03-18T02:00:48.799Z,3.30
2019-03-18T02:03:29.339Z,2.70
2019-03-18T02:06:10.046Z,2.60
2019-03-18T02:08:51.170Z,2.50
2019-03-18T02:11:19.675Z,2.93
2019-03-18T02:13:48.181Z,3.10
2019-03-18T02:16:16.680Z,2.80
2019-03-18T02:18:45.224Z,3.10
2019-03-18T02:21:13.712Z,2.67
2019-03-18T02:23:42.203Z,3.40
2019-03-18T02:26:10.680Z,2.90
2019-03-18T02:28:39.186Z,2.93
2019-03-18T02:31:07.663Z,3.53
2019-03-18T02:33:36.157Z,3.80
2019-03-18T02:36:04.636Z,2.57
2019-03-18T02:38:33.200Z,4.30
2019-03-18T02:41:01.667Z,3.40
2019-03-18T02:43:30.188Z,3.40
2019-03-18T02:46:09.829Z,2.43
2019-03-18T02:48:28.927Z,3.10
2019-03-18T02:50:57.486Z,3.07
2019-03-18T02:53:25.966Z,2.57
2019-03-18T02:55:54.470Z,2.63
2019-03-18T02:58:22.994Z,2.63
2019-03-18T03:00:51.565Z,2.60
2019-03-18T03:03:20.072Z,2.57
2019-03-18T03:05:48.575Z,2.80
2019-03-18T03:08:17.077Z,2.47
2019-03-18T03:10:45.551Z,3.10
2019-03-18T03:13:14.038Z,2.30
2019-03-18T03:15:42.538Z,2.93
2019-03-18T03:18:10.997Z,2.67
2019-03-18T03:20:39.510Z,2.03
2019-03-18T03:23:07.994Z,2.70
2019-03-18T03:25:36.516Z,2.53
2019-03-18T03:28:05.000Z,2.30
2019-03-18T03:30:33.486Z,2.37
2019-03-18T03:33:01.966Z,3.23
2019-03-18T03:35:30.545Z,2.50
2019-03-18T03:37:59.104Z,2.77
2019-03-18T03:40:27.620Z,3.63
2019-03-18T03:42:56.096Z,2.50
2019-03-18T03:45:24.578Z,3.30
2019-03-18T03:47:53.043Z,2.80
2019-03-18T03:50:21.535Z,2.70
2019-03-18T03:52:50.007Z,2.67
2019-03-18T03:55:18.553Z,2.73
2019-03-18T03:57:47.042Z,2.93
2019-03-18T04:00:16.115Z,2.40
2019-03-18T04:02:44.591Z,2.73
2019-03-18T04:05:13.251Z,2.50
2019-03-18T04:07:41.843Z,3.20
2019-03-18T04:10:12.749Z,2.70
2019-03-18T04:12:41.222Z,3.30
2019-03-18T04:15:12.154Z,2.87
2019-03-18T04:17:40.679Z,3.43
2019-03-18T04:20:14.806Z,2.50
2019-03-18T04:22:43.330Z,3.97
2019-03-18T04:25:11.905Z,3.90
2019-03-18T04:27:40.410Z,3.67
2019-03-18T04:30:11.188Z,3.53
2019-03-18T04:32:39.648Z,2.97
2019-03-18T04:35:08.214Z,3.30
2019-03-18T04:37:36.697Z,2.80
2019-03-18T04:40:07.142Z,3.40
2019-03-18T04:42:35.604Z,3.77
2019-03-18T04:45:06.424Z,3.93
2019-03-18T04:47:34.905Z,3.27
2019-03-18T04:50:04.141Z,3.27
2019-03-18T04:52:32.579Z,4.20
2019-03-18T04:55:01.322Z,5.30
2019-03-18T04:57:29.804Z,4.40
2019-03-18T04:59:58.316Z,4.10
2019-03-18T05:02:26.787Z,4.10
2019-03-18T05:04:55.346Z,3.90
2019-03-18T05:07:23.840Z,3.80
2019-03-18T05:09:52.386Z,4.30
2019-03-18T05:12:20.956Z,5.00
2019-03-18T05:14:49.439Z,6.27
2019-03-18T05:17:26.464Z,5.17
2019-03-18T05:19:48.151Z,10.23
2019-03-18T05:22:16.699Z,5.17
2019-03-18T05:24:45.190Z,4.33
2019-03-18T05:27:13.673Z,4.10
2019-03-18T05:29:42.157Z,4.73
2019-03-18T05:32:10.666Z,3.80
2019-03-18T05:34:39.160Z,3.63
2019-03-18T05:37:07.747Z,4.17
2019-03-18T05:39:36.234Z,3.27
2019-03-18T05:42:04.735Z,3.53
2019-03-18T05:44:33.196Z,2.70
2019-03-18T05:47:01.782Z,3.03
2019-03-18T05:49:30.264Z,3.60
2019-03-18T05:51:58.782Z,3.27
2019-03-18T05:54:27.250Z,2.83
2019-03-18T05:56:55.742Z,3.37
2019-03-18T05:59:24.289Z,2.83
2019-03-18T06:01:52.782Z,3.23
2019-03-18T06:04:21.281Z,2.67
2019-03-18T06:06:49.772Z,3.20
2019-03-18T06:09:18.235Z,2.90
2019-03-18T06:11:46.727Z,3.67
2019-03-18T06:14:15.158Z,3.60
2019-03-18T06:16:43.583Z,3.43
2019-03-18T06:19:12.187Z,3.00
2019-03-18T06:21:41.645Z,3.20
2019-03-18T06:24:10.063Z,2.50
2019-03-18T06:26:38.494Z,2.87
2019-03-18T06:29:06.902Z,4.00
2019-03-18T06:31:35.368Z,3.20
2019-03-18T06:34:03.861Z,2.70
2019-03-18T06:36:32.363Z,1.90
2019-03-18T06:39:00.923Z,2.50
2019-03-18T06:41:29.431Z,2.40
2019-03-18T06:43:57.883Z,2.90
2019-03-18T06:46:26.378Z,3.23
2019-03-18T06:48:54.852Z,3.60
2019-03-18T06:51:23.330Z,3.30
2019-03-18T06:53:51.906Z,2.90
2019-03-18T06:56:20.459Z,4.60
2019-03-18T06:58:48.924Z,3.90
2019-03-18T07:01:17.413Z,2.90
2019-03-18T07:03:45.896Z,3.17
2019-03-18T07:06:15.317Z,4.00
2019-03-18T07:08:43.778Z,4.40
2019-03-18T07:11:12.355Z,4.53
2019-03-18T07:13:40.823Z,3.50
2019-03-18T07:16:09.299Z,3.83
2019-03-18T07:18:37.815Z,3.80
2019-03-18T07:21:06.274Z,4.40
2019-03-18T07:23:34.790Z,4.03
2019-03-18T07:26:03.262Z,3.53
2019-03-18T07:28:31.816Z,4.50
2019-03-18T07:31:00.299Z,5.73
2019-03-18T07:33:28.802Z,4.43
2019-03-18T07:35:57.260Z,3.40
2019-03-18T07:38:25.748Z,3.10
2019-03-18T07:40:54.616Z,3.07
2019-03-18T07:43:23.995Z,2.80
2019-03-18T07:45:52.495Z,3.23
2019-03-18T07:48:30.362Z,2.87
2019-03-18T07:50:51.246Z,2.60
2019-03-18T07:53:19.753Z,2.40
2019-03-18T07:55:48.160Z,2.50
2019-03-18T07:58:16.668Z,3.60
2019-03-18T08:00:45.236Z,3.10
2019-03-18T08:03:13.781Z,3.20
2019-03-18T08:05:42.245Z,2.47
2019-03-18T08:08:10.742Z,2.47
2019-03-18T08:10:40.104Z,2.50
2019-03-18T08:13:08.563Z,2.67
2019-03-18T08:15:37.109Z,2.10
2019-03-18T08:18:05.592Z,2.50
2019-03-18T08:20:34.082Z,2.40
2019-03-18T08:23:02.546Z,2.67
2019-03-18T08:25:31.085Z,2.40
2019-03-18T08:27:59.626Z,2.33
2019-03-18T08:30:28.086Z,2.00
2019-03-18T08:32:56.575Z,2.20
2019-03-18T08:35:25.081Z,2.30
2019-03-18T08:37:54.918Z,1.93
2019-03-18T08:40:23.500Z,1.60
2019-03-18T08:42:52.028Z,1.77
2019-03-18T08:45:20.539Z,2.17
2019-03-18T08:47:49.008Z,2.07
2019-03-18T08:50:17.508Z,1.40
2019-03-18T08:52:46.012Z,1.60
2019-03-18T08:55:14.492Z,3.30
2019-03-18T08:57:42.970Z,2.53
2019-03-18T09:00:13.680Z,1.47
2019-03-18T09:02:42.147Z,1.43
2019-03-18T09:05:10.860Z,1.63
2019-03-18T09:07:39.411Z,1.80
2019-03-18T09:10:11.079Z,1.37
2019-03-18T09:12:39.547Z,1.50
2019-03-18T09:15:10.655Z,1.50
2019-03-18T09:17:39.150Z,1.23
2019-03-18T09:20:12.791Z,1.30
2019-03-18T09:22:41.284Z,1.33
2019-03-18T09:25:10.977Z,1.50
2019-03-18T09:27:39.613Z,1.40
2019-03-18T09:30:19.218Z,1.10
2019-03-18T09:32:47.881Z,1.10
2019-03-18T09:35:16.342Z,1.37
2019-03-18T09:37:44.827Z,1.23
2019-03-18T09:40:15.148Z,1.10
2019-03-18T09:42:43.795Z,1.10
2019-03-18T09:45:14.058Z,1.93
2019-03-18T09:47:42.550Z,1.70
2019-03-18T09:50:12.143Z,1.80
2019-03-18T09:52:40.655Z,1.57
2019-03-18T09:55:09.577Z,1.30
2019-03-18T09:57:38.204Z,1.40
2019-03-18T10:00:12.523Z,1.60
2019-03-18T10:02:41.971Z,3.03
2019-03-18T10:05:10.664Z,1.67
2019-03-18T10:07:39.195Z,1.43
2019-03-18T10:10:09.906Z,1.50
2019-03-18T10:12:38.355Z,1.40
2019-03-18T10:15:15.149Z,1.80
2019-03-18T10:17:43.678Z,2.00
2019-03-18T10:20:12.209Z,4.17
2019-03-18T10:22:40.758Z,5.70
2019-03-18T10:25:09.318Z,3.20
2019-03-18T10:27:38.049Z,2.37
2019-03-18T10:30:12.283Z,2.77
2019-03-18T10:32:40.827Z,1.67
2019-03-18T10:35:09.869Z,1.73
2019-03-18T10:37:38.403Z,1.37
2019-03-18T10:40:12.549Z,3.30
2019-03-18T10:42:41.443Z,1.43
2019-03-18T10:45:14.225Z,1.60
2019-03-18T10:47:42.765Z,2.40
2019-03-18T10:50:13.534Z,1.73
2019-03-18T10:52:42.098Z,1.47
2019-03-18T10:55:11.180Z,1.53
2019-03-18T10:57:39.685Z,1.20
2019-03-18T11:00:11.402Z,1.30
2019-03-18T11:02:39.890Z,1.67
2019-03-18T11:05:09.128Z,2.23
2019-03-18T11:07:37.586Z,1.60
2019-03-18T11:10:09.289Z,1.63
2019-03-18T11:12:37.824Z,1.83
2019-03-18T11:15:15.179Z,1.73
2019-03-18T11:17:43.713Z,1.30
2019-03-18T11:20:13.743Z,1.10
2019-03-18T11:22:42.268Z,1.17
2019-03-18T11:25:15.722Z,1.23
2019-03-18T11:27:44.208Z,1.10
2019-03-18T11:30:14.082Z,1.50
2019-03-18T11:32:42.571Z,1.47
2019-03-18T11:35:11.273Z,1.03
2019-03-18T11:37:39.774Z,1.30
2019-03-18T11:40:14.003Z,1.07
2019-03-18T11:42:42.499Z,1.27
2019-03-18T11:45:15.372Z,0.90
2019-03-18T11:47:43.934Z,3.13
2019-03-18T11:50:14.805Z,2.20
2019-03-18T11:52:43.447Z,1.50
2019-03-18T11:55:14.701Z,1.90
2019-03-18T11:57:43.215Z,1.43
2019-03-18T12:00:14.346Z,1.30
2019-03-18T12:02:42.818Z,1.33
2019-03-18T12:05:13.742Z,1.50
2019-03-18T12:07:42.306Z,1.00
2019-03-18T12:10:13.836Z,1.20
2019-03-18T12:12:42.374Z,1.63
2019-03-18T12:15:22.472Z,1.60
2019-03-18T12:17:50.940Z,1.17
2019-03-18T12:20:24.801Z,1.20
2019-03-18T12:22:49.675Z,1.47
2019-03-18T12:25:20.042Z,2.07
2019-03-18T12:27:48.595Z,2.00
2019-03-18T12:30:19.131Z,1.40
2019-03-18T12:32:47.688Z,1.40
2019-03-18T12:35:16.165Z,1.57
2019-03-18T12:37:44.778Z,1.33
2019-03-18T12:40:14.300Z,1.40
2019-03-18T12:42:42.834Z,1.33
2019-03-18T12:45:16.639Z,1.90
2019-03-18T12:47:45.196Z,1.30
2019-03-18T12:50:17.675Z,1.60
2019-03-18T12:52:46.310Z,1.33
2019-03-18T12:55:14.921Z,1.50
2019-03-18T12:57:43.486Z,1.47
2019-03-18T13:00:20.589Z,1.57
2019-03-18T13:02:49.283Z,1.30
2019-03-18T13:05:17.862Z,1.27
2019-03-18T13:07:46.399Z,1.37
2019-03-18T13:10:17.163Z,1.30
2019-03-18T13:12:45.750Z,1.33
2019-03-18T13:15:18.095Z,1.53
2019-03-18T13:17:46.654Z,1.20
2019-03-18T13:20:15.972Z,1.57
2019-03-18T13:22:44.446Z,1.00
2019-03-18T13:25:13.452Z,1.20
2019-03-18T13:27:42.294Z,1.27
2019-03-18T13:30:20.751Z,0.90
2019-03-18T13:32:49.269Z,2.23
2019-03-18T13:35:17.828Z,2.10
2019-03-18T13:37:46.290Z,1.53
2019-03-18T13:40:18.134Z,1.47
2019-03-18T13:42:46.586Z,1.20
2019-03-18T13:45:20.044Z,1.20
2019-03-18T13:47:48.653Z,0.97
2019-03-18T13:50:22.019Z,0.90
2019-03-18T13:52:50.499Z,1.00
2019-03-18T13:55:19.226Z,1.00
2019-03-18T13:57:47.769Z,0.97
2019-03-18T14:00:19.962Z,1.20
2019-03-18T14:02:48.587Z,1.00
2019-03-18T14:05:17.064Z,1.47
2019-03-18T14:07:59.044Z,1.37
2019-03-18T14:10:20.239Z,1.50
2019-03-18T14:12:48.705Z,1.20
2019-03-18T14:15:19.390Z,1.10
2019-03-18T14:17:47.925Z,1.27
2019-03-18T14:20:20.390Z,2.10
2019-03-18T14:22:48.965Z,3.43
2019-03-18T14:25:17.467Z,2.87
2019-03-18T14:27:45.926Z,1.83
2019-03-18T14:30:16.930Z,1.10
2019-03-18T14:32:45.447Z,1.73
2019-03-18T14:35:14.168Z,1.20
2019-03-18T14:37:42.623Z,1.73
2019-03-18T14:40:13.616Z,1.33
2019-03-18T14:42:42.149Z,1.30
2019-03-18T14:45:13.687Z,1.43
2019-03-18T14:47:42.255Z,1.20
2019-03-18T14:50:12.222Z,1.10
2019-03-18T14:52:40.710Z,1.37
2019-03-18T14:55:12.014Z,2.27
2019-03-18T14:57:40.585Z,35.97
2019-03-18T15:00:14.568Z,32.07
2019-03-18T15:02:42.415Z,13.60
2019-03-18T15:05:12.997Z,2.27
2019-03-18T15:07:41.471Z,1.27
2019-03-18T15:10:12.181Z,1.23
2019-03-18T15:12:40.722Z,0.70
2019-03-18T15:15:14.721Z,0.70
2019-03-18T15:17:43.339Z,0.60
2019-03-18T15:20:13.402Z,0.90
2019-03-18T15:22:41.930Z,1.17
2019-03-18T15:25:12.998Z,1.63
2019-03-18T15:27:41.544Z,1.50
2019-03-18T15:30:18.587Z,1.10
2019-03-18T15:32:47.215Z,1.10
2019-03-18T15:35:17.005Z,1.40
2019-03-18T15:37:45.535Z,1.73
2019-03-18T15:40:24.843Z,0.90
2019-03-18T15:42:53.415Z,1.60
2019-03-18T15:45:22.433Z,0.80
2019-03-18T15:47:51.055Z,0.70
2019-03-18T15:50:21.706Z,0.70
2019-03-18T15:52:50.255Z,0.80
2019-03-18T15:55:18.795Z,0.80
2019-03-18T15:57:47.363Z,0.70
2019-03-18T16:00:22.815Z,1.20
2019-03-18T16:02:51.381Z,0.80
2019-03-18T16:05:19.833Z,0.80
2019-03-18T16:07:48.396Z,0.90
2019-03-18T16:10:17.722Z,1.90
2019-03-18T16:12:46.182Z,1.03
2019-03-18T16:15:18.301Z,0.80
2019-03-18T16:17:46.830Z,1.07
2019-03-18T16:20:19.903Z,1.03
2019-03-18T16:22:48.371Z,1.03
2019-03-18T16:25:16.846Z,1.00
2019-03-18T16:27:45.334Z,0.90
2019-03-18T16:30:16.228Z,0.70
2019-03-18T16:32:44.756Z,0.80
2019-03-18T16:35:16.816Z,2.70
2019-03-18T16:37:45.527Z,3.27
2019-03-18T16:40:21.157Z,1.37
2019-03-18T16:42:49.693Z,0.90
2019-03-18T16:45:18.794Z,1.10
2019-03-18T16:47:47.389Z,1.00
2019-03-18T16:50:18.107Z,0.90
2019-03-18T16:52:46.581Z,1.40
2019-03-18T16:55:15.069Z,1.17
2019-03-18T16:57:43.563Z,1.40
2019-03-18T17:00:18.076Z,1.10
2019-03-18T17:02:46.556Z,1.30
2019-03-18T17:05:15.314Z,1.93
2019-03-18T17:07:44.102Z,2.27
2019-03-18T17:10:13.745Z,2.30
2019-03-18T17:12:42.398Z,2.43
2019-03-18T17:15:13.190Z,10.97
2019-03-18T17:17:41.678Z,11.90
2019-03-18T17:20:12.203Z,15.07
2019-03-18T17:22:48.674Z,10.90
2019-03-18T17:25:16.027Z,9.20
2019-03-18T17:27:44.559Z,7.90
2019-03-18T17:30:17.556Z,4.97
2019-03-18T17:32:46.455Z,3.50
2019-03-18T17:35:15.060Z,5.13
2019-03-18T17:37:43.632Z,4.50
2019-03-18T17:40:14.341Z,3.87
2019-03-18T17:42:42.851Z,5.47
2019-03-18T17:45:15.283Z,8.60
2019-03-18T17:47:43.928Z,7.20
2019-03-18T17:50:15.570Z,11.73
2019-03-18T17:52:44.166Z,6.30
2019-03-18T17:55:12.756Z,10.33
2019-03-18T17:57:41.255Z,8.40
2019-03-18T18:00:26.899Z,6.10
2019-03-18T18:02:55.451Z,5.07
2019-03-18T18:05:23.932Z,4.93
2019-03-18T18:07:52.433Z,4.53
2019-03-18T18:10:20.889Z,4.33
2019-03-18T18:12:49.418Z,16.40
2019-03-18T18:15:17.943Z,14.47
2019-03-18T18:17:46.486Z,12.73
2019-03-18T18:20:15.816Z,13.13
2019-03-18T18:22:44.490Z,13.67
2019-03-18T18:25:15.204Z,18.27
2019-03-18T18:27:43.804Z,13.93
2019-03-18T18:30:17.350Z,13.53
2019-03-18T18:32:45.903Z,14.53
2019-03-18T18:35:14.387Z,13.30
2019-03-18T18:37:42.979Z,12.90
2019-03-18T18:40:16.666Z,16.23
2019-03-18T18:42:45.172Z,14.60
2019-03-18T18:45:13.879Z,15.50
2019-03-18T18:47:42.360Z,17.07
2019-03-18T18:50:11.880Z,15.03
2019-03-18T18:52:40.379Z,14.43
2019-03-18T18:55:10.356Z,13.17
2019-03-18T18:57:38.965Z,10.70
2019-03-18T19:00:20.769Z,8.40
2019-03-18T19:02:49.242Z,7.77
2019-03-18T19:05:18.285Z,5.97
2019-03-18T19:07:46.778Z,5.80
2019-03-18T19:10:19.487Z,5.10
2019-03-18T19:12:47.984Z,4.03
2019-03-18T19:15:24.221Z,5.80
2019-03-18T19:17:52.777Z,5.70
2019-03-18T19:20:21.330Z,3.37
2019-03-18T19:22:49.820Z,3.93
2019-03-18T19:25:18.554Z,3.70
2019-03-18T19:27:47.234Z,8.30
2019-03-18T19:30:17.722Z,10.60
2019-03-18T19:32:46.263Z,11.47
2019-03-18T19:35:14.822Z,7.50
2019-03-18T19:37:43.365Z,5.90
2019-03-18T19:40:14.174Z,6.20
2019-03-18T19:42:42.791Z,5.40
2019-03-18T19:45:14.395Z,4.80
2019-03-18T19:47:42.872Z,4.57
2019-03-18T19:50:16.636Z,5.90
2019-03-18T19:52:45.128Z,4.93
2019-03-18T19:55:13.765Z,4.27
2019-03-18T19:57:42.229Z,4.60
2019-03-18T20:00:16.446Z,4.43
2019-03-18T20:02:44.908Z,3.80
2019-03-18T20:05:15.378Z,4.00
2019-03-18T20:07:43.830Z,4.93
2019-03-18T20:10:14.848Z,4.60
2019-03-18T20:12:43.340Z,4.27
2019-03-18T20:15:16.810Z,4.67
2019-03-18T20:17:45.282Z,4.37
2019-03-18T20:20:18.482Z,4.77
2019-03-18T20:22:46.950Z,4.00
2019-03-18T20:25:15.634Z,4.53
2019-03-18T20:27:45.035Z,4.70
2019-03-18T20:30:21.279Z,5.90
2019-03-18T20:32:49.887Z,6.10
2019-03-18T20:35:22.025Z,6.20
2019-03-18T20:37:52.173Z,5.30
2019-03-18T20:40:20.915Z,6.17
2019-03-18T20:42:49.527Z,5.73
2019-03-18T20:45:25.350Z,5.13
2019-03-18T20:47:53.906Z,5.63
2019-03-18T20:50:23.011Z,5.00
2019-03-18T20:52:51.582Z,6.97
2019-03-18T20:55:20.127Z,6.50
2019-03-18T20:57:48.671Z,7.47
2019-03-18T21:00:23.607Z,6.47
2019-03-18T21:02:52.099Z,6.70
2019-03-18T21:05:20.708Z,6.00
2019-03-18T21:07:49.416Z,6.40
2019-03-18T21:10:18.867Z,6.50
2019-03-18T21:12:47.459Z,11.17
2019-03-18T21:15:17.238Z,10.60
2019-03-18T21:17:45.898Z,9.77
2019-03-18T21:20:18.423Z,9.67
2019-03-18T21:22:46.981Z,9.47
2019-03-18T21:25:15.844Z,9.30
2019-03-18T21:27:44.360Z,11.07
2019-03-18T21:30:16.023Z,9.20
2019-03-18T21:32:44.599Z,8.60
2019-03-18T21:35:13.252Z,8.93
2019-03-18T21:37:41.765Z,9.20
2019-03-18T21:40:15.123Z,7.93
2019-03-18T21:42:43.667Z,6.57
2019-03-18T21:45:19.022Z,8.07
2019-03-18T21:47:47.657Z,8.40
2019-03-18T21:50:16.702Z,7.63
2019-03-18T21:52:45.305Z,7.43
2019-03-18T21:55:14.707Z,6.70
2019-03-18T21:57:43.335Z,7.80
2019-03-18T22:00:21.466Z,6.97
2019-03-18T22:02:49.951Z,7.60
2019-03-18T22:05:19.305Z,8.03
2019-03-18T22:07:47.799Z,7.63
2019-03-18T22:10:17.435Z,8.13
2019-03-18T22:12:46.809Z,8.80
2019-03-18T22:15:16.079Z,8.90
2019-03-18T22:17:44.724Z,10.77
2019-03-18T22:20:19.947Z,11.63
2019-03-18T22:22:48.529Z,10.83
2019-03-18T22:25:17.381Z,10.80
2019-03-18T22:27:45.958Z,10.50
2019-03-18T22:30:18.412Z,13.70
2019-03-18T22:32:47.507Z,12.97
2019-03-18T22:35:16.039Z,11.57
2019-03-18T22:37:44.702Z,11.43
2019-03-18T22:40:15.388Z,11.53
2019-03-18T22:42:43.971Z,11.83
2019-03-18T22:45:13.547Z,15.27
2019-03-18T22:47:42.047Z,16.63
2019-03-18T22:50:11.951Z,13.10
2019-03-18T22:52:40.418Z,14.80
2019-03-18T22:55:10.911Z,13.80
2019-03-18T22:57:39.673Z,16.40
2019-03-18T23:00:12.867Z,15.57
2019-03-18T23:02:41.344Z,17.03
2019-03-18T23:05:12.929Z,17.67
2019-03-18T23:07:41.466Z,16.07
2019-03-18T23:10:10.104Z,14.30
2019-03-18T23:12:38.585Z,17.80
2019-03-18T23:15:08.444Z,15.70
2019-03-18T23:17:36.932Z,16.47
2019-03-18T23:20:06.785Z,16.40
2019-03-18T23:22:35.256Z,14.93
2019-03-18T23:25:07.707Z,11.70
2019-03-18T23:27:35.400Z,11.30
2019-03-18T23:30:05.931Z,11.73
2019-03-18T23:32:34.398Z,11.50
2019-03-18T23:35:03.264Z,12.20
2019-03-18T23:37:31.741Z,10.10
2019-03-18T23:40:00.323Z,10.87
2019-03-18T23:42:28.791Z,12.20
2019-03-18T23:44:57.286Z,8.57
2019-03-18T23:47:25.756Z,7.50
2019-03-18T23:49:54.280Z,9.80
2019-03-18T23:52:22.765Z,11.90
2019-03-18T23:54:51.261Z,10.40
2019-03-18T23:57:19.788Z,10.47
2019-03-18T23:59:48.296Z,8.17
